Terminal Aerodrome Forecast
Issued by NWS

Home | Current Version | Previous Version | Text Only | Print | Product List | Glossary On
Versions: 1 2 3 4 5 6 7 8 9 10 11 12 13 14 15 16 17 18 19 20 21 22 23
528
FTUS41 KBUF 270251 AAA
TAFJHW
TAF AMD
KJHW 270251Z 2703/2724 18008KT P6SM SKC
     FM271000 15008KT P6SM SCT007
     FM271400 16011G18KT P6SM SCT250
     FM271900 19011KT P6SM BKN130
     FM272100 20010KT 4SM SHRA VCTS OVC040CB
      AMD LTD TO CLD VIS AND WIND=

USA.gov is the U.S. government's official web portal to all federal, state and local government web resources and services.